sensor_id;sensor_type;location;lat;lon;timestamp;pressure;altitude;pressure_sealevel;temperature;humidity
50011;BME280;35899;50.352;19.390;2023-04-25T00:02:17;96668.52;;;10.10;91.63
50011;BME280;35899;50.352;19.390;2023-04-25T00:04:45;96666.95;;;10.10;91.81
50011;BME280;35899;50.352;19.390;2023-04-25T00:07:13;96665.98;;;10.10;91.76
50011;BME280;35899;50.352;19.390;2023-04-25T00:09:41;96663.63;;;10.09;91.70
50011;BME280;35899;50.352;19.390;2023-04-25T00:12:12;96663.49;;;10.07;91.72
50011;BME280;35899;50.352;19.390;2023-04-25T00:14:39;96660.65;;;10.04;91.88
50011;BME280;35899;50.352;19.390;2023-04-25T00:17:08;96662.59;;;10.02;91.85
50011;BME280;35899;50.352;19.390;2023-04-25T00:19:36;96662.38;;;10.00;92.17
50011;BME280;35899;50.352;19.390;2023-04-25T00:22:03;96665.02;;;9.99;92.16
50011;BME280;35899;50.352;19.390;2023-04-25T00:24:31;96664.69;;;9.99;92.30
50011;BME280;35899;50.352;19.390;2023-04-25T00:27:02;96665.80;;;9.98;92.30
50011;BME280;35899;50.352;19.390;2023-04-25T00:29:38;96663.51;;;9.96;92.56
50011;BME280;35899;50.352;19.390;2023-04-25T00:32:06;96665.28;;;9.96;92.82
50011;BME280;35899;50.352;19.390;2023-04-25T00:34:34;96666.76;;;9.95;93.04
50011;BME280;35899;50.352;19.390;2023-04-25T00:37:02;96662.73;;;9.94;92.93
50011;BME280;35899;50.352;19.390;2023-04-25T00:39:30;96664.06;;;9.92;92.89
50011;BME280;35899;50.352;19.390;2023-04-25T00:42:03;96663.27;;;9.91;93.08
50011;BME280;35899;50.352;19.390;2023-04-25T00:44:32;96667.81;;;9.91;93.04
50011;BME280;35899;50.352;19.390;2023-04-25T00:47:01;96671.14;;;9.94;93.05
50011;BME280;35899;50.352;19.390;2023-04-25T00:49:30;96670.98;;;9.96;93.06
50011;BME280;35899;50.352;19.390;2023-04-25T00:51:57;96671.86;;;9.98;92.88
50011;BME280;35899;50.352;19.390;2023-04-25T00:54:25;96675.69;;;10.00;92.88
50011;BME280;35899;50.352;19.390;2023-04-25T00:56:53;96675.16;;;10.00;92.74
50011;BME280;35899;50.352;19.390;2023-04-25T00:59:21;96677.98;;;10.01;92.96
50011;BME280;35899;50.352;19.390;2023-04-25T01:01:51;96677.70;;;10.04;92.92
50011;BME280;35899;50.352;19.390;2023-04-25T01:04:19;96678.61;;;10.06;93.15
50011;BME280;35899;50.352;19.390;2023-04-25T01:06:47;96675.23;;;10.09;93.05
50011;BME280;35899;50.352;19.390;2023-04-25T01:09:16;96675.98;;;10.12;92.92
50011;BME280;35899;50.352;19.390;2023-04-25T01:11:45;96675.30;;;10.12;92.97
50011;BME280;35899;50.352;19.390;2023-04-25T01:14:12;96678.80;;;10.15;93.08
50011;BME280;35899;50.352;19.390;2023-04-25T01:16:40;96674.71;;;10.16;93.27
50011;BME280;35899;50.352;19.390;2023-04-25T01:19:09;96682.32;;;10.19;93.15
50011;BME280;35899;50.352;19.390;2023-04-25T01:21:37;96680.79;;;10.21;93.15
50011;BME280;35899;50.352;19.390;2023-04-25T01:24:05;96681.29;;;10.23;93.21
50011;BME280;35899;50.352;19.390;2023-04-25T01:26:34;96684.11;;;10.24;93.36
50011;BME280;35899;50.352;19.390;2023-04-25T01:29:05;96679.98;;;10.22;93.18
50011;BME280;35899;50.352;19.390;2023-04-25T01:31:35;96681.49;;;10.18;93.32
50011;BME280;35899;50.352;19.390;2023-04-25T01:34:05;96678.91;;;10.16;93.56
50011;BME280;35899;50.352;19.390;2023-04-25T01:36:36;96680.39;;;10.15;93.64
50011;BME280;35899;50.352;19.390;2023-04-25T01:39:04;96676.44;;;10.15;94.05
50011;BME280;35899;50.352;19.390;2023-04-25T01:41:33;96675.84;;;10.14;94.06
50011;BME280;35899;50.352;19.390;2023-04-25T01:44:08;96667.61;;;10.13;94.52
50011;BME280;35899;50.352;19.390;2023-04-25T01:46:36;96668.38;;;10.12;94.93
50011;BME280;35899;50.352;19.390;2023-04-25T01:49:05;96674.66;;;10.09;94.80
50011;BME280;35899;50.352;19.390;2023-04-25T01:51:33;96676.02;;;10.06;95.18
50011;BME280;35899;50.352;19.390;2023-04-25T01:54:07;96675.14;;;10.00;95.54
50011;BME280;35899;50.352;19.390;2023-04-25T01:56:49;96675.35;;;9.95;95.62
50011;BME280;35899;50.352;19.390;2023-04-25T01:59:21;96674.17;;;9.93;96.04
50011;BME280;35899;50.352;19.390;2023-04-25T02:02:09;96678.38;;;9.87;96.37
50011;BME280;35899;50.352;19.390;2023-04-25T02:04:37;96676.91;;;9.84;96.28
50011;BME280;35899;50.352;19.390;2023-04-25T02:07:06;96679.61;;;9.80;96.48
50011;BME280;35899;50.352;19.390;2023-04-25T02:09:47;96684.20;;;9.75;97.25
50011;BME280;35899;50.352;19.390;2023-04-25T02:12:20;96681.33;;;9.68;97.21
50011;BME280;35899;50.352;19.390;2023-04-25T02:15:24;96687.94;;;9.64;97.15
50011;BME280;35899;50.352;19.390;2023-04-25T02:17:59;96682.61;;;9.60;97.16
50011;BME280;35899;50.352;19.390;2023-04-25T02:20:28;96686.86;;;9.56;97.04
50011;BME280;35899;50.352;19.390;2023-04-25T02:22:58;96688.45;;;9.52;97.05
50011;BME280;35899;50.352;19.390;2023-04-25T02:25:38;96686.73;;;9.48;97.18
50011;BME280;35899;50.352;19.390;2023-04-25T02:28:09;96686.13;;;9.45;97.17
50011;BME280;35899;50.352;19.390;2023-04-25T02:30:40;96685.60;;;9.41;97.57
50011;BME280;35899;50.352;19.390;2023-04-25T02:33:13;96685.64;;;9.36;97.60
50011;BME280;35899;50.352;19.390;2023-04-25T02:35:57;96690.16;;;9.34;97.77
50011;BME280;35899;50.352;19.390;2023-04-25T02:38:25;96689.93;;;9.32;97.84
50011;BME280;35899;50.352;19.390;2023-04-25T02:40:53;96686.71;;;9.32;97.77
50011;BME280;35899;50.352;19.390;2023-04-25T02:43:33;96688.68;;;9.33;98.13
50011;BME280;35899;50.352;19.390;2023-04-25T02:46:06;96690.48;;;9.34;97.88
50011;BME280;35899;50.352;19.390;2023-04-25T02:48:39;96690.95;;;9.33;98.26
50011;BME280;35899;50.352;19.390;2023-04-25T02:54:03;96699.06;;;9.33;98.63
50011;BME280;35899;50.352;19.390;2023-04-25T02:56:46;96697.22;;;9.28;98.73
50011;BME280;35899;50.352;19.390;2023-04-25T02:59:22;96696.98;;;9.25;98.85
50011;BME280;35899;50.352;19.390;2023-04-25T03:02:12;96696.40;;;9.23;98.79
50011;BME280;35899;50.352;19.390;2023-04-25T03:04:38;96698.46;;;9.24;98.89
50011;BME280;35899;50.352;19.390;2023-04-25T03:07:07;96698.98;;;9.23;98.93
50011;BME280;35899;50.352;19.390;2023-04-25T03:09:44;96698.65;;;9.21;98.76
50011;BME280;35899;50.352;19.390;2023-04-25T03:12:12;96699.83;;;9.19;98.81
50011;BME280;35899;50.352;19.390;2023-04-25T03:14:47;96697.64;;;9.19;98.99
50011;BME280;35899;50.352;19.390;2023-04-25T03:17:15;96696.11;;;9.18;98.95
50011;BME280;35899;50.352;19.390;2023-04-25T03:19:43;96698.80;;;9.15;99.17
50011;BME280;35899;50.352;19.390;2023-04-25T03:22:18;96695.20;;;9.11;98.54
50011;BME280;35899;50.352;19.390;2023-04-25T03:24:46;96696.76;;;9.07;98.99
50011;BME280;35899;50.352;19.390;2023-04-25T03:27:14;96701.13;;;8.99;98.66
50011;BME280;35899;50.352;19.390;2023-04-25T03:29:42;96698.52;;;8.92;98.76
50011;BME280;35899;50.352;19.390;2023-04-25T03:32:10;96703.09;;;8.84;98.82
50011;BME280;35899;50.352;19.390;2023-04-25T03:34:41;96704.23;;;8.79;98.70
50011;BME280;35899;50.352;19.390;2023-04-25T03:37:11;96706.23;;;8.73;99.34
50011;BME280;35899;50.352;19.390;2023-04-25T03:39:40;96709.00;;;8.67;98.52
50011;BME280;35899;50.352;19.390;2023-04-25T03:42:08;96706.02;;;8.64;98.70
50011;BME280;35899;50.352;19.390;2023-04-25T03:44:37;96704.63;;;8.57;98.42
50011;BME280;35899;50.352;19.390;2023-04-25T03:47:05;96703.41;;;8.53;98.48
50011;BME280;35899;50.352;19.390;2023-04-25T03:49:33;96712.02;;;8.51;98.43
50011;BME280;35899;50.352;19.390;2023-04-25T03:52:03;96712.98;;;8.52;98.26
50011;BME280;35899;50.352;19.390;2023-04-25T03:54:36;96716.75;;;8.54;98.42
50011;BME280;35899;50.352;19.390;2023-04-25T03:57:14;96720.90;;;8.58;98.59
50011;BME280;35899;50.352;19.390;2023-04-25T03:59:42;96721.11;;;8.60;97.96
50011;BME280;35899;50.352;19.390;2023-04-25T04:02:11;96722.34;;;8.62;97.90
50011;BME280;35899;50.352;19.390;2023-04-25T04:04:41;96721.27;;;8.60;97.45
50011;BME280;35899;50.352;19.390;2023-04-25T04:07:09;96723.87;;;8.60;97.55
50011;BME280;35899;50.352;19.390;2023-04-25T04:09:40;96725.25;;;8.60;97.31
50011;BME280;35899;50.352;19.390;2023-04-25T04:12:13;96733.38;;;8.57;96.93
50011;BME280;35899;50.352;19.390;2023-04-25T04:14:41;96739.45;;;8.53;96.97
50011;BME280;35899;50.352;19.390;2023-04-25T04:17:09;96739.79;;;8.49;96.44
50011;BME280;35899;50.352;19.390;2023-04-25T04:19:37;96743.62;;;8.46;96.73
50011;BME280;35899;50.352;19.390;2023-04-25T04:22:10;96746.14;;;8.47;96.61
50011;BME280;35899;50.352;19.390;2023-04-25T04:24:39;96744.51;;;8.48;96.61
50011;BME280;35899;50.352;19.390;2023-04-25T04:27:08;96747.63;;;8.47;96.52
50011;BME280;35899;50.352;19.390;2023-04-25T04:29:38;96752.16;;;8.47;96.25
50011;BME280;35899;50.352;19.390;2023-04-25T04:32:26;96755.33;;;8.48;96.40
50011;BME280;35899;50.352;19.390;2023-04-25T04:34:54;96757.09;;;8.48;96.10
50011;BME280;35899;50.352;19.390;2023-04-25T04:37:23;96754.49;;;8.46;96.17
50011;BME280;35899;50.352;19.390;2023-04-25T04:39:51;96755.89;;;8.44;95.97
50011;BME280;35899;50.352;19.390;2023-04-25T04:42:45;96756.16;;;8.39;95.78
50011;BME280;35899;50.352;19.390;2023-04-25T04:45:36;96757.52;;;8.36;95.56
50011;BME280;35899;50.352;19.390;2023-04-25T04:48:22;96761.55;;;8.33;95.49
50011;BME280;35899;50.352;19.390;2023-04-25T04:51:08;96761.14;;;8.31;95.87
50011;BME280;35899;50.352;19.390;2023-04-25T04:54:08;96760.09;;;8.34;96.31
50011;BME280;35899;50.352;19.390;2023-04-25T04:57:11;96761.27;;;8.36;96.43
50011;BME280;35899;50.352;19.390;2023-04-25T05:00:17;96762.64;;;8.38;96.32
50011;BME280;35899;50.352;19.390;2023-04-25T05:05:51;96763.24;;;8.38;96.07
50011;BME280;35899;50.352;19.390;2023-04-25T05:08:39;96767.27;;;8.30;95.48
50011;BME280;35899;50.352;19.390;2023-04-25T05:11:24;96762.75;;;8.26;95.90
50011;BME280;35899;50.352;19.390;2023-04-25T05:14:12;96766.37;;;8.24;95.65
50011;BME280;35899;50.352;19.390;2023-04-25T05:16:40;96763.57;;;8.22;95.60
50011;BME280;35899;50.352;19.390;2023-04-25T05:19:23;96763.45;;;8.21;95.81
50011;BME280;35899;50.352;19.390;2023-04-25T05:22:02;96764.78;;;8.25;95.94
50011;BME280;35899;50.352;19.390;2023-04-25T05:24:37;96766.67;;;8.31;95.92
50011;BME280;35899;50.352;19.390;2023-04-25T05:27:25;96770.94;;;8.34;95.75
50011;BME280;35899;50.352;19.390;2023-04-25T05:30:11;96774.36;;;8.36;95.42
50011;BME280;35899;50.352;19.390;2023-04-25T05:32:56;96775.62;;;8.40;95.09
50011;BME280;35899;50.352;19.390;2023-04-25T05:35:27;96776.75;;;8.46;95.16
50011;BME280;35899;50.352;19.390;2023-04-25T05:37:55;96777.69;;;8.49;95.25
50011;BME280;35899;50.352;19.390;2023-04-25T05:40:36;96778.99;;;8.52;95.03
50011;BME280;35899;50.352;19.390;2023-04-25T05:43:36;96778.94;;;8.53;94.78
50011;BME280;35899;50.352;19.390;2023-04-25T05:46:24;96775.29;;;8.55;94.48
50011;BME280;35899;50.352;19.390;2023-04-25T05:49:11;96779.34;;;8.60;94.34
50011;BME280;35899;50.352;19.390;2023-04-25T05:51:53;96784.48;;;8.61;93.90
50011;BME280;35899;50.352;19.390;2023-04-25T05:54:41;96788.55;;;8.62;94.15
50011;BME280;35899;50.352;19.390;2023-04-25T05:57:24;96787.70;;;8.64;94.09
50011;BME280;35899;50.352;19.390;2023-04-25T05:59:56;96786.32;;;8.68;93.98
50011;BME280;35899;50.352;19.390;2023-04-25T06:02:39;96789.95;;;8.70;94.17
50011;BME280;35899;50.352;19.390;2023-04-25T06:05:11;96791.90;;;8.72;94.29
50011;BME280;35899;50.352;19.390;2023-04-25T06:07:40;96794.60;;;8.77;94.03
50011;BME280;35899;50.352;19.390;2023-04-25T06:10:11;96793.83;;;8.80;93.67
50011;BME280;35899;50.352;19.390;2023-04-25T06:12:39;96795.88;;;8.76;93.29
50011;BME280;35899;50.352;19.390;2023-04-25T06:15:07;96796.41;;;8.80;93.69
50011;BME280;35899;50.352;19.390;2023-04-25T06:17:59;96804.05;;;8.84;93.09
50011;BME280;35899;50.352;19.390;2023-04-25T06:20:37;96800.98;;;8.85;93.13
50011;BME280;35899;50.352;19.390;2023-04-25T06:23:26;96803.32;;;8.87;92.60
50011;BME280;35899;50.352;19.390;2023-04-25T06:26:04;96801.99;;;8.86;92.57
50011;BME280;35899;50.352;19.390;2023-04-25T06:28:53;96802.04;;;8.89;92.33
50011;BME280;35899;50.352;19.390;2023-04-25T06:31:32;96800.70;;;8.91;91.94
50011;BME280;35899;50.352;19.390;2023-04-25T06:36:51;96798.23;;;8.96;92.14
50011;BME280;35899;50.352;19.390;2023-04-25T06:39:19;96799.27;;;9.09;92.44
50011;BME280;35899;50.352;19.390;2023-04-25T06:41:57;96801.11;;;9.22;91.75
50011;BME280;35899;50.352;19.390;2023-04-25T06:45:00;96801.75;;;9.33;90.89
50011;BME280;35899;50.352;19.390;2023-04-25T06:47:30;96807.94;;;9.44;90.63
50011;BME280;35899;50.352;19.390;2023-04-25T06:50:02;96802.81;;;9.49;90.47
50011;BME280;35899;50.352;19.390;2023-04-25T06:52:30;96803.33;;;9.56;90.58
50011;BME280;35899;50.352;19.390;2023-04-25T06:55:02;96805.02;;;9.62;90.28
50011;BME280;35899;50.352;19.390;2023-04-25T06:57:50;96802.10;;;9.64;89.85
50011;BME280;35899;50.352;19.390;2023-04-25T07:00:41;96801.33;;;9.69;89.63
50011;BME280;35899;50.352;19.390;2023-04-25T07:03:15;96800.13;;;9.75;88.90
50011;BME280;35899;50.352;19.390;2023-04-25T07:05:43;96802.27;;;9.78;88.48
50011;BME280;35899;50.352;19.390;2023-04-25T07:08:14;96798.05;;;9.85;88.40
50011;BME280;35899;50.352;19.390;2023-04-25T12:12:47;96790.20;;;13.53;51.86
50011;BME280;35899;50.352;19.390;2023-04-25T12:15:17;96786.38;;;13.53;51.58
50011;BME280;35899;50.352;19.390;2023-04-25T12:17:45;96786.60;;;13.61;51.90
50011;BME280;35899;50.352;19.390;2023-04-25T12:20:13;96783.33;;;13.59;50.40
50011;BME280;35899;50.352;19.390;2023-04-25T12:22:40;96791.75;;;13.46;50.03
50011;BME280;35899;50.352;19.390;2023-04-25T12:25:07;96798.77;;;13.33;49.34
50011;BME280;35899;50.352;19.390;2023-04-25T12:27:35;96794.23;;;13.21;49.01
50011;BME280;35899;50.352;19.390;2023-04-25T12:30:01;96797.30;;;13.10;49.72
50011;BME280;35899;50.352;19.390;2023-04-25T12:32:28;96799.02;;;13.02;49.93
50011;BME280;35899;50.352;19.390;2023-04-25T12:34:57;96796.77;;;12.80;49.52
50011;BME280;35899;50.352;19.390;2023-04-25T12:37:28;96798.99;;;12.65;50.30
50011;BME280;35899;50.352;19.390;2023-04-25T12:40:22;96801.49;;;12.53;50.74
50011;BME280;35899;50.352;19.390;2023-04-25T12:43:02;96799.23;;;12.42;50.31
50011;BME280;35899;50.352;19.390;2023-04-25T12:45:28;96795.36;;;12.39;50.71
50011;BME280;35899;50.352;19.390;2023-04-25T12:47:55;96794.30;;;12.34;50.19
50011;BME280;35899;50.352;19.390;2023-04-25T12:50:21;96797.00;;;12.31;50.54
50011;BME280;35899;50.352;19.390;2023-04-25T12:52:48;96792.42;;;12.21;50.62
50011;BME280;35899;50.352;19.390;2023-04-25T12:55:17;96794.29;;;12.13;51.06
50011;BME280;35899;50.352;19.390;2023-04-25T12:57:44;96796.23;;;12.11;51.10
50011;BME280;35899;50.352;19.390;2023-04-25T13:00:10;96797.33;;;12.07;51.12
50011;BME280;35899;50.352;19.390;2023-04-25T13:02:38;96798.52;;;12.04;51.28
50011;BME280;35899;50.352;19.390;2023-04-25T13:05:05;96797.53;;;12.01;51.63
50011;BME280;35899;50.352;19.390;2023-04-25T13:07:31;96802.70;;;12.03;51.59
50011;BME280;35899;50.352;19.390;2023-04-25T13:10:04;96800.20;;;12.02;51.40
50011;BME280;35899;50.352;19.390;2023-04-25T13:12:34;96799.37;;;12.00;51.45
50011;BME280;35899;50.352;19.390;2023-04-25T13:15:00;96797.90;;;11.97;51.73
50011;BME280;35899;50.352;19.390;2023-04-25T13:17:27;96791.89;;;12.00;52.14
50011;BME280;35899;50.352;19.390;2023-04-25T13:19:57;96795.70;;;12.02;52.27
50011;BME280;35899;50.352;19.390;2023-04-25T13:22:26;96794.52;;;12.04;52.42
50011;BME280;35899;50.352;19.390;2023-04-25T13:24:53;96794.04;;;12.00;51.97
50011;BME280;35899;50.352;19.390;2023-04-25T13:27:19;96793.48;;;11.95;51.83
50011;BME280;35899;50.352;19.390;2023-04-25T13:29:46;96791.55;;;11.89;51.67
50011;BME280;35899;50.352;19.390;2023-04-25T13:32:13;96792.34;;;11.88;52.18
50011;BME280;35899;50.352;19.390;2023-04-25T13:34:39;96793.74;;;11.92;52.44
50011;BME280;35899;50.352;19.390;2023-04-25T13:37:06;96793.94;;;11.94;52.57
50011;BME280;35899;50.352;19.390;2023-04-25T13:39:35;96794.14;;;11.91;52.80
50011;BME280;35899;50.352;19.390;2023-04-25T13:42:02;96796.25;;;11.95;53.19
50011;BME280;35899;50.352;19.390;2023-04-25T13:44:36;96794.27;;;11.97;52.98
50011;BME280;35899;50.352;19.390;2023-04-25T13:47:03;96796.92;;;12.02;52.91
50011;BME280;35899;50.352;19.390;2023-04-25T13:49:30;96798.23;;;12.05;52.62
50011;BME280;35899;50.352;19.390;2023-04-25T13:52:00;96799.78;;;12.07;51.82
50011;BME280;35899;50.352;19.390;2023-04-25T13:54:27;96800.83;;;12.12;52.48
50011;BME280;35899;50.352;19.390;2023-04-25T13:56:54;96800.57;;;12.25;52.26
50011;BME280;35899;50.352;19.390;2023-04-25T13:59:23;96800.55;;;12.32;52.75
50011;BME280;35899;50.352;19.390;2023-04-25T14:01:50;96804.08;;;12.42;52.61
50011;BME280;35899;50.352;19.390;2023-04-25T14:04:17;96800.38;;;12.50;52.79
50011;BME280;35899;50.352;19.390;2023-04-25T14:06:43;96800.79;;;12.61;52.30
50011;BME280;35899;50.352;19.390;2023-04-25T14:09:10;96805.28;;;12.69;52.26
50011;BME280;35899;50.352;19.390;2023-04-25T14:11:37;96804.28;;;12.80;52.60
50011;BME280;35899;50.352;19.390;2023-04-25T14:14:03;96805.31;;;12.85;52.48
50011;BME280;35899;50.352;19.390;2023-04-25T14:16:30;96806.69;;;12.87;52.03
50011;BME280;35899;50.352;19.390;2023-04-25T14:19:00;96805.40;;;12.81;52.12
50011;BME280;35899;50.352;19.390;2023-04-25T14:21:29;96806.05;;;12.74;52.48
50011;BME280;35899;50.352;19.390;2023-04-25T14:23:56;96803.79;;;12.72;52.37
50011;BME280;35899;50.352;19.390;2023-04-25T14:26:22;96803.65;;;12.61;52.39
50011;BME280;35899;50.352;19.390;2023-04-25T14:28:50;96805.59;;;12.57;52.88
50011;BME280;35899;50.352;19.390;2023-04-25T14:31:17;96813.48;;;12.45;51.73
50011;BME280;35899;50.352;19.390;2023-04-25T14:33:44;96812.94;;;12.37;51.98
50011;BME280;35899;50.352;19.390;2023-04-25T14:36:10;96814.09;;;12.33;51.97
50011;BME280;35899;50.352;19.390;2023-04-25T14:38:37;96808.75;;;12.29;51.97
50011;BME280;35899;50.352;19.390;2023-04-25T14:41:03;96806.85;;;12.26;52.08
50011;BME280;35899;50.352;19.390;2023-04-25T14:43:30;96807.11;;;12.23;52.21
50011;BME280;35899;50.352;19.390;2023-04-25T14:45:56;96806.26;;;12.16;51.94
50011;BME280;35899;50.352;19.390;2023-04-25T14:48:24;96809.85;;;12.14;52.25
50011;BME280;35899;50.352;19.390;2023-04-25T14:50:51;96811.33;;;12.13;52.00
50011;BME280;35899;50.352;19.390;2023-04-25T14:53:18;96812.36;;;12.06;51.96
50011;BME280;35899;50.352;19.390;2023-04-25T14:55:44;96814.23;;;12.01;52.22
50011;BME280;35899;50.352;19.390;2023-04-25T14:58:13;96816.03;;;11.89;52.50
50011;BME280;35899;50.352;19.390;2023-04-25T15:00:40;96817.06;;;11.78;53.24
50011;BME280;35899;50.352;19.390;2023-04-25T15:03:07;96818.62;;;11.61;53.70
50011;BME280;35899;50.352;19.390;2023-04-25T15:05:36;96823.07;;;11.44;53.95
50011;BME280;35899;50.352;19.390;2023-04-25T15:08:02;96830.09;;;11.33;54.51
50011;BME280;35899;50.352;19.390;2023-04-25T15:10:29;96830.77;;;11.22;54.71
50011;BME280;35899;50.352;19.390;2023-04-25T15:12:56;96831.77;;;11.13;55.12
50011;BME280;35899;50.352;19.390;2023-04-25T15:15:22;96833.16;;;11.22;55.07
50011;BME280;35899;50.352;19.390;2023-04-25T15:17:53;96827.84;;;11.75;54.91
50011;BME280;35899;50.352;19.390;2023-04-25T15:20:23;96825.89;;;12.79;53.89
50011;BME280;35899;50.352;19.390;2023-04-25T15:22:50;96821.68;;;13.92;53.05
50011;BME280;35899;50.352;19.390;2023-04-25T15:25:17;96818.48;;;14.66;51.61
50011;BME280;35899;50.352;19.390;2023-04-25T15:27:43;96814.74;;;15.21;50.50
50011;BME280;35899;50.352;19.390;2023-04-25T15:30:14;96819.72;;;15.50;49.53
50011;BME280;35899;50.352;19.390;2023-04-25T15:32:42;96823.02;;;15.47;49.28
50011;BME280;35899;50.352;19.390;2023-04-25T15:35:09;96817.39;;;15.44;48.91
50011;BME280;35899;50.352;19.390;2023-04-25T15:37:36;96820.20;;;15.28;48.16
50011;BME280;35899;50.352;19.390;2023-04-25T15:40:07;96824.35;;;15.07;47.94
50011;BME280;35899;50.352;19.390;2023-04-25T15:42:35;96827.96;;;14.90;48.39
50011;BME280;35899;50.352;19.390;2023-04-25T15:45:08;96826.13;;;14.65;48.52
50011;BME280;35899;50.352;19.390;2023-04-25T15:47:37;96819.51;;;14.39;48.94
50011;BME280;35899;50.352;19.390;2023-04-25T15:50:05;96816.58;;;14.20;48.66
50011;BME280;35899;50.352;19.390;2023-04-25T15:52:32;96821.50;;;13.91;48.63
50011;BME280;35899;50.352;19.390;2023-04-25T15:54:58;96819.04;;;13.63;49.03
50011;BME280;35899;50.352;19.390;2023-04-25T15:57:25;96818.98;;;13.43;49.42
50011;BME280;35899;50.352;19.390;2023-04-25T15:59:51;96821.00;;;13.26;49.90
50011;BME280;35899;50.352;19.390;2023-04-25T16:02:24;96818.52;;;13.08;49.63
50011;BME280;35899;50.352;19.390;2023-04-25T16:04:51;96820.86;;;12.90;49.71
50011;BME280;35899;50.352;19.390;2023-04-25T16:07:18;96816.90;;;12.71;50.12
50011;BME280;35899;50.352;19.390;2023-04-25T16:09:44;96815.37;;;12.46;50.35
50011;BME280;35899;50.352;19.390;2023-04-25T16:12:11;96817.63;;;12.18;50.84
50011;BME280;35899;50.352;19.390;2023-04-25T16:14:38;96821.92;;;11.94;51.21
50011;BME280;35899;50.352;19.390;2023-04-25T16:17:11;96818.98;;;11.72;51.71
50011;BME280;35899;50.352;19.390;2023-04-25T16:19:38;96824.02;;;11.56;51.86
50011;BME280;35899;50.352;19.390;2023-04-25T16:22:06;96822.20;;;11.53;52.27
50011;BME280;35899;50.352;19.390;2023-04-25T16:24:32;96818.13;;;11.51;52.78
50011;BME280;35899;50.352;19.390;2023-04-25T16:27:11;96824.50;;;11.47;52.81
50011;BME280;35899;50.352;19.390;2023-04-25T16:29:45;96828.09;;;11.44;53.06
50011;BME280;35899;50.352;19.390;2023-04-25T16:32:15;96832.63;;;11.38;53.03
50011;BME280;35899;50.352;19.390;2023-04-25T16:34:44;96834.78;;;11.35;53.37
50011;BME280;35899;50.352;19.390;2023-04-25T16:37:13;96836.07;;;11.38;53.60
50011;BME280;35899;50.352;19.390;2023-04-25T16:39:46;96838.27;;;11.44;53.44
50011;BME280;35899;50.352;19.390;2023-04-25T16:42:13;96836.63;;;11.47;53.54
50011;BME280;35899;50.352;19.390;2023-04-25T16:44:42;96835.63;;;11.62;53.56
50011;BME280;35899;50.352;19.390;2023-04-25T16:47:09;96833.92;;;11.71;53.47
50011;BME280;35899;50.352;19.390;2023-04-25T16:49:37;96838.80;;;11.75;53.59
50011;BME280;35899;50.352;19.390;2023-04-25T16:52:03;96840.48;;;11.73;53.88
50011;BME280;35899;50.352;19.390;2023-04-25T16:54:30;96843.06;;;11.68;53.81
50011;BME280;35899;50.352;19.390;2023-04-25T16:56:56;96851.02;;;11.58;53.44
50011;BME280;35899;50.352;19.390;2023-04-25T16:59:26;96849.59;;;11.46;53.41
50011;BME280;35899;50.352;19.390;2023-04-25T17:01:52;96852.40;;;11.34;53.62
50011;BME280;35899;50.352;19.390;2023-04-25T17:04:19;96850.65;;;11.24;53.74
50011;BME280;35899;50.352;19.390;2023-04-25T17:06:48;96859.05;;;11.18;53.70
50011;BME280;35899;50.352;19.390;2023-04-25T17:09:15;96854.85;;;11.14;54.11
50011;BME280;35899;50.352;19.390;2023-04-25T17:11:44;96854.44;;;11.13;54.22
50011;BME280;35899;50.352;19.390;2023-04-25T17:14:13;96856.20;;;11.09;54.31
50011;BME280;35899;50.352;19.390;2023-04-25T17:16:40;96854.63;;;10.99;54.39
50011;BME280;35899;50.352;19.390;2023-04-25T17:19:07;96856.15;;;10.86;54.59
50011;BME280;35899;50.352;19.390;2023-04-25T17:21:33;96861.29;;;10.71;55.06
50011;BME280;35899;50.352;19.390;2023-04-25T17:24:00;96864.02;;;10.59;55.07
50011;BME280;35899;50.352;19.390;2023-04-25T17:26:26;96864.61;;;10.46;55.25
50011;BME280;35899;50.352;19.390;2023-04-25T17:28:55;96867.26;;;10.35;55.44
50011;BME280;35899;50.352;19.390;2023-04-25T17:31:21;96865.56;;;10.25;55.68
50011;BME280;35899;50.352;19.390;2023-04-25T17:33:48;96868.97;;;10.15;56.03
50011;BME280;35899;50.352;19.390;2023-04-25T17:36:15;96870.22;;;10.07;56.36
50011;BME280;35899;50.352;19.390;2023-04-25T17:38:41;96869.50;;;10.01;56.73
50011;BME280;35899;50.352;19.390;2023-04-25T17:41:08;96869.81;;;9.95;56.81
50011;BME280;35899;50.352;19.390;2023-04-25T17:43:35;96868.17;;;9.88;56.84
50011;BME280;35899;50.352;19.390;2023-04-25T17:46:04;96873.34;;;9.82;57.00
50011;BME280;35899;50.352;19.390;2023-04-25T17:48:31;96870.76;;;9.75;57.14
50011;BME280;35899;50.352;19.390;2023-04-25T17:50:57;96881.98;;;9.69;57.20
50011;BME280;35899;50.352;19.390;2023-04-25T17:53:24;96888.59;;;9.62;57.40
50011;BME280;35899;50.352;19.390;2023-04-25T17:55:50;96894.57;;;9.53;57.23
50011;BME280;35899;50.352;19.390;2023-04-25T17:58:17;96901.25;;;9.45;57.20
50011;BME280;35899;50.352;19.390;2023-04-25T18:00:43;96903.74;;;9.35;57.29
50011;BME280;35899;50.352;19.390;2023-04-25T18:06:24;96909.58;;;9.11;57.55
50011;BME280;35899;50.352;19.390;2023-04-25T18:08:55;96911.01;;;9.01;57.51
50011;BME280;35899;50.352;19.390;2023-04-25T18:11:23;96909.70;;;8.91;57.71
50011;BME280;35899;50.352;19.390;2023-04-25T18:13:50;96915.09;;;8.82;57.97
50011;BME280;35899;50.352;19.390;2023-04-25T18:16:17;96917.92;;;8.75;57.95
50011;BME280;35899;50.352;19.390;2023-04-25T18:18:45;96921.73;;;8.68;57.96
50011;BME280;35899;50.352;19.390;2023-04-25T18:21:11;96923.78;;;8.61;58.29
50011;BME280;35899;50.352;19.390;2023-04-25T18:24:01;96927.68;;;8.56;58.44
50011;BME280;35899;50.352;19.390;2023-04-25T18:26:35;96931.66;;;8.47;58.44
50011;BME280;35899;50.352;19.390;2023-04-25T18:29:02;96937.14;;;8.40;58.69
50011;BME280;35899;50.352;19.390;2023-04-25T18:31:31;96945.75;;;8.36;58.80